Kalachinsk, Russia
Current Conditions -  °F | °C
As of 7:30 PM on Saturday 20 Dec 2014 (Local Time) from UNOO Reporting Station
Smoke Smoke  
Wind Chill: -12°   Ceiling: Unl
Heat Index: -2°   Visibility: 1.4mi
Dew Point: -6°   Wind: 4mph
Humidity: 85%   Direction: 170°S
Pressure: 30.15"   Gusts: NA
Location:  55.05°N, 74.57°E
Report Text: UNOO 201330Z 17002MPS 2300 FU SCT200 M19/M21 Q1021 25820550NOSIG RMK QFE757
Loading
Personal Weather Stations






























Interactive Weather Map New forecast layout! Learn more

10-Day Weather Forecast

Advertisements
Track Severe Weather on mobile